Time;durP1;ratioP1;P1;durP2;ratioP2;P2;SDS_P1;SDS_P2;PMS_P1;PMS_P2;Temp;Humidity;BMP_temperature;BMP_pressure;BME280_temperature;BME280_humidity;BME280_pressure;Samples;Min_cycle;Max_cycle;Signal;HPM_P1;HPM_P2
2023/01/01 00:01:29;;;;;;;;;413.00;318.25;;;;;2.69;100.00;100636.28;6277998;20;4543993;-57
2023/01/01 00:03:59;;;;;;;;;534.17;395.50;;;;;3.06;100.00;100640.13;6272389;20;4520090;-58
2023/01/01 00:06:30;;;;;;;;;357.75;246.50;;;;;2.64;100.00;100636.34;6277386;20;3752524;-57
2023/01/01 00:11:49;;;;;;;;;334.75;243.50;;;;;2.54;100.00;100630.28;6275893;20;4528386;-53
2023/01/01 00:14:19;;;;;;;;;299.75;231.75;;;;;2.23;100.00;100623.63;6278493;20;4479454;-58
2023/01/01 00:16:49;;;;;;;;;283.00;225.75;;;;;2.40;100.00;100619.00;6309790;20;4482536;-56
2023/01/01 00:19:20;;;;;;;;;371.25;289.75;;;;;2.62;100.00;100625.72;6306057;20;4538775;-57
2023/01/01 00:21:51;;;;;;;;;379.75;312.50;;;;;2.70;100.00;100630.94;6276060;20;4538949;-57
2023/01/01 00:24:21;;;;;;;;;401.50;322.75;;;;;2.71;100.00;100632.66;6276905;20;4543962;-55
2023/01/01 00:26:52;;;;;;;;;407.00;325.75;;;;;2.73;100.00;100641.50;6274704;20;4521199;-56
2023/01/01 00:29:22;;;;;;;;;410.00;353.67;;;;;2.78;100.00;100638.78;6274698;20;3716032;-54
2023/01/01 00:31:52;;;;;;;;;385.50;312.75;;;;;2.64;100.00;100625.72;6276983;20;4526280;-55
2023/01/01 00:34:22;;;;;;;;;336.67;260.00;;;;;2.73;100.00;100627.38;6274483;20;3717387;-53
2023/01/01 00:36:52;;;;;;;;;320.67;262.67;;;;;2.53;100.00;100625.00;6274444;20;3720007;-53
2023/01/01 00:39:22;;;;;;;;;327.67;262.33;;;;;2.65;100.00;100638.06;6274649;20;3727490;-55
2023/01/01 00:41:52;;;;;;;;;364.50;290.00;;;;;2.66;100.00;100631.91;6275675;20;4536678;-59
2023/01/01 00:44:23;;;;;;;;;359.50;279.25;;;;;2.67;100.00;100638.06;6280005;20;3739992;-53
2023/01/01 00:46:52;;;;;;;;;330.00;267.67;;;;;2.64;100.00;100642.50;6282498;20;3725236;-53
2023/01/01 00:49:22;;;;;;;;;326.33;259.33;;;;;2.61;100.00;100650.50;6277560;20;3717958;-55
2023/01/01 00:51:53;;;;;;;;;368.50;294.50;;;;;2.72;100.00;100649.50;6278595;20;4536669;-53
2023/01/01 00:54:24;;;;;;;;;386.50;307.00;;;;;2.70;100.00;100653.94;6279788;20;3748361;-56
2023/01/01 00:56:54;;;;;;;;;355.00;276.67;;;;;2.81;100.00;100655.50;6277472;20;3746107;-55
2023/01/01 00:59:25;;;;;;;;;398.75;293.75;;;;;2.75;100.00;100658.25;6278716;20;4528359;-55
2023/01/01 01:01:58;;;;;;;;;318.75;247.25;;;;;2.52;100.00;100645.31;6281367;20;3729438;-53
2023/01/01 01:04:28;;;;;;;;;341.33;272.67;;;;;2.53;100.00;100643.56;6314608;20;3713295;-55
2023/01/01 01:06:58;;;;;;;;;322.00;258.00;;;;;2.19;100.00;100638.69;6279275;20;4475251;-54
2023/01/01 01:09:27;;;;;;;;;335.67;274.33;;;;;2.36;100.00;100643.75;6312717;20;3740886;-58
2023/01/01 01:11:59;;;;;;;;;401.25;313.75;;;;;2.51;100.00;100640.06;6281040;20;4536819;-56
2023/01/01 01:14:47;;;;;;;;;400.00;331.67;;;;;2.50;100.00;100649.78;6281842;20;3747279;-57
2023/01/01 01:17:18;;;;;;;;;396.25;330.75;;;;;2.66;100.00;100649.56;6277838;20;4515941;-54
2023/01/01 01:19:49;;;;;;;;;418.50;331.75;;;;;2.57;100.00;100645.25;6277613;20;4555500;-53
2023/01/01 01:22:19;;;;;;;;;403.75;326.75;;;;;2.56;100.00;100638.22;6281465;20;4533593;-54
2023/01/01 01:24:57;;;;;;;;;374.00;318.50;;;;;2.79;100.00;100641.44;6280204;20;4533719;-55
2023/01/01 01:27:27;;;;;;;;;347.67;297.33;;;;;2.68;100.00;100634.50;6282388;20;3738981;-55
2023/01/01 01:29:58;;;;;;;;;415.25;323.50;;;;;2.53;100.00;100625.00;6282650;20;4543023;-52
2023/01/01 01:32:28;;;;;;;;;383.75;307.75;;;;;2.46;100.00;100610.06;6283303;20;4529434;-56
2023/01/01 01:34:59;;;;;;;;;401.75;313.00;;;;;2.46;100.00;100610.94;6281419;20;4545180;-53
2023/01/01 01:37:30;;;;;;;;;384.00;286.00;;;;;2.30;100.00;100620.88;6284700;20;3748296;-55
2023/01/01 01:40:00;;;;;;;;;386.25;315.50;;;;;2.67;100.00;100619.50;6283086;20;4527456;-56
2023/01/01 01:42:31;;;;;;;;;377.50;296.00;;;;;2.73;100.00;100614.09;6280441;20;4537962;-54
2023/01/01 01:45:06;;;;;;;;;361.75;296.00;;;;;2.53;100.00;100614.41;6285711;20;4519995;-55
2023/01/01 01:47:56;;;;;;;;;364.00;285.75;;;;;2.65;100.00;100616.88;6283268;20;4538845;-56
2023/01/01 01:50:37;;;;;;;;;338.25;271.50;;;;;2.55;100.00;100620.53;6282279;20;4495263;-53
2023/01/01 01:53:22;;;;;;;;;242.25;200.25;;;;;2.37;100.00;100625.22;6281454;20;4510684;-54
2023/01/01 01:56:03;;;;;;;;;163.25;134.75;;;;;2.23;100.00;100624.47;6279130;20;4506507;-54
2023/01/01 01:58:35;;;;;;;;;172.25;135.00;;;;;2.16;100.00;100630.78;6277757;20;4481491;-55
2023/01/01 02:01:06;;;;;;;;;163.00;137.50;;;;;1.93;100.00;100617.78;6279756;20;4504421;-55
2023/01/01 02:04:00;;;;;;;;;191.00;144.25;;;;;2.21;100.00;100620.97;6284056;20;4488801;-56
2023/01/01 02:06:32;;;;;;;;;207.00;168.00;;;;;2.24;100.00;100620.97;6278438;20;4488805;-56
2023/01/01 02:09:06;;;;;;;;;171.25;131.25;;;;;1.87;100.00;100620.47;6284062;20;4486674;-56
2023/01/01 02:11:37;;;;;;;;;133.00;107.00;;;;;1.98;100.00;100623.91;6279405;20;4484626;-57
2023/01/01 02:14:08;;;;;;;;;145.25;120.50;;;;;2.09;100.00;100622.00;6281022;20;4483603;-56
2023/01/01 02:17:54;;;;;;;;;143.50;110.50;;;;;1.85;100.00;100615.22;6275007;20;1958904;-54
2023/01/01 02:20:50;;;;;;;;;163.25;126.00;;;;;1.99;100.00;100599.19;6276922;20;4480423;-55
2023/01/01 02:23:43;;;;;;;;;166.50;123.00;;;;;1.99;100.00;100604.47;6305556;20;1956518;-55
2023/01/01 02:26:53;;;;;;;;;162.00;123.75;;;;;1.96;100.00;100594.78;6280516;20;3721248;-54
2023/01/01 02:29:50;;;;;;;;;140.50;114.50;;;;;1.94;100.00;100601.88;6307812;20;1960980;-55
2023/01/01 02:33:04;;;;;;;;;144.75;126.50;;;;;2.07;100.00;100607.91;6277847;20;4486710;-54
2023/01/01 02:35:51;;;;;;;;;154.00;130.50;;;;;1.94;100.00;100612.47;6267578;20;4503372;-56
2023/01/01 02:38:50;;;;;;;;;126.75;107.25;;;;;1.94;100.00;100624.84;6279825;20;3717481;-51
2023/01/01 02:41:43;;;;;;;;;121.33;104.67;;;;;2.13;100.00;100630.78;6313332;20;3715976;-51
2023/01/01 02:44:13;;;;;;;;;101.67;87.00;;;;;1.77;100.00;100625.03;6292088;20;3688824;-55
2023/01/01 02:46:42;;;;;;;;;105.25;80.50;;;;;1.90;100.00;100634.59;6283610;20;4464823;-55
2023/01/01 02:49:12;;;;;;;;;109.67;83.00;;;;;2.03;100.00;100642.38;6279178;20;3716121;-57
2023/01/01 02:52:10;;;;;;;;;99.67;81.33;;;;;1.74;100.00;100641.81;6279402;20;3682495;-54
2023/01/01 02:55:01;;;;;;;;;104.67;85.00;;;;;1.88;100.00;100631.06;6278133;20;3695146;-54
2023/01/01 02:57:42;;;;;;;;;101.50;85.50;;;;;1.92;100.00;100640.75;6280836;20;3565983;-55
2023/01/01 03:00:30;;;;;;;;;120.00;97.67;;;;;1.81;100.00;100634.66;6309611;20;3700329;-55
2023/01/01 03:04:11;;;;;;;;;106.67;89.33;;;;;1.97;100.00;100638.94;6281461;20;3678500;-51
2023/01/01 03:08:00;;;;;;;;;101.33;81.33;;;;;1.96;100.00;100631.00;6276301;20;3689817;-56
2023/01/01 03:11:05;;;;;;;;;93.88;79.63;;;;;1.82;100.00;100627.59;6284172;20;3674238;-53
2023/01/01 03:14:31;;;;;;;;;100.33;86.33;;;;;2.05;100.00;100637.94;6338835;20;3658619;-53
2023/01/01 03:17:25;;;;;;;;;99.00;85.50;;;;;1.66;100.00;100643.66;6307424;20;2730495;-50
2023/01/01 03:20:00;;;;;;;;;109.00;84.33;;;;;1.88;100.00;100646.97;6302654;20;3702404;-56
2023/01/01 03:22:37;;;;;;;;;118.00;98.00;;;;;1.61;100.00;100644.59;6306834;20;3573201;-56
2023/01/01 03:25:28;;;;;;;;;97.00;78.33;;;;;1.60;100.00;100638.41;6340124;20;3673652;-56
2023/01/01 03:28:25;;;;;;;;;115.33;95.67;;;;;1.35;100.00;100634.25;6308018;20;3680459;-52
2023/01/01 03:30:56;;;;;;;;;105.00;88.00;;;;;1.67;100.00;100623.38;6307450;20;3669022;-55
2023/01/01 03:33:46;;;;;;;;;112.67;95.67;;;;;1.59;100.00;100631.38;6307184;20;3688978;-56
2023/01/01 03:36:34;;;;;;;;;102.33;87.00;;;;;1.61;100.00;100626.94;6303619;20;3683727;-56
2023/01/01 03:39:19;;;;;;;;;99.00;86.33;;;;;1.62;100.00;100626.06;6304430;20;3652491;-58
2023/01/01 03:42:37;;;;;;;;;104.25;85.50;;;;;1.38;100.00;100621.88;6337224;20;3695046;-53
2023/01/01 03:45:35;;;;;;;;;104.67;89.00;;;;;1.45;100.00;100620.03;6336331;20;3697186;-53
2023/01/01 03:48:06;;;;;;;;;107.33;90.00;;;;;1.56;100.00;100625.25;6307768;20;3687168;-55
2023/01/01 03:51:26;;;;;;;;;100.33;81.00;;;;;1.58;100.00;100631.38;6304214;20;3694233;-56
2023/01/01 03:54:08;;;;;;;;;99.00;82.33;;;;;1.48;100.00;100626.19;6303002;20;3665924;-57
2023/01/01 03:57:14;;;;;;;;;101.00;80.00;;;;;1.68;100.00;100625.09;6300689;20;3683596;-57
2023/01/01 04:00:10;;;;;;;;;98.67;85.33;;;;;1.84;100.00;100639.94;6302592;20;3669060;-55
2023/01/01 04:03:05;;;;;;;;;109.00;88.00;;;;;1.86;100.00;100643.44;6303728;20;3691914;-54
2023/01/01 04:05:41;;;;;;;;;115.33;93.33;;;;;1.54;100.00;100627.91;6304140;20;3685721;-57
2023/01/01 04:08:14;;;;;;;;;109.00;93.67;;;;;1.60;100.00;100632.25;6305673;20;3690874;-55
2023/01/01 04:10:59;;;;;;;;;123.00;102.33;;;;;1.46;100.00;100635.91;6303142;20;3715931;-57
2023/01/01 04:13:29;;;;;;;;;119.67;103.00;;;;;1.61;100.00;100639.31;6304700;20;3701294;-56
2023/01/01 04:15:59;;;;;;;;;114.00;93.67;;;;;1.66;100.00;100638.38;6306604;20;3672124;-55
2023/01/01 04:18:29;;;;;;;;;112.00;84.50;;;;;1.52;100.00;100641.13;6302923;20;3699392;-56
2023/01/01 04:20:59;;;;;;;;;110.67;91.67;;;;;1.71;100.00;100644.50;6289464;20;3686712;-55
2023/01/01 04:23:28;;;;;;;;;132.00;98.33;;;;;1.36;100.00;100650.09;6281744;20;3700276;-55
2023/01/01 04:25:58;;;;;;;;;123.00;98.33;;;;;1.36;100.00;100647.47;6281859;20;3700247;-56
2023/01/01 04:28:28;;;;;;;;;111.00;93.33;;;;;1.36;100.00;100651.88;6280622;20;3676452;-55
2023/01/01 04:31:01;;;;;;;;;107.00;88.33;;;;;1.36;100.00;100652.75;6278673;20;3707563;-54
2023/01/01 04:33:31;;;;;;;;;100.00;83.67;;;;;1.47;100.00;100648.22;6283745;20;3680558;-56
2023/01/01 04:36:08;;;;;;;;;103.33;90.00;;;;;1.49;100.00;100648.22;6281928;20;3698257;-54
2023/01/01 04:38:38;;;;;;;;;108.33;90.00;;;;;1.53;100.00;100648.19;6283246;20;3674378;-55
2023/01/01 04:41:09;;;;;;;;;105.67;83.00;;;;;1.48;100.00;100655.28;6283737;20;3690907;-54
2023/01/01 04:43:38;;;;;;;;;118.33;93.33;;;;;1.73;100.00;100644.47;6284109;20;3688785;-53
2023/01/01 04:46:08;;;;;;;;;109.33;93.67;;;;;1.75;100.00;100648.84;6283455;20;3676404;-57
2023/01/01 04:48:38;;;;;;;;;107.67;88.00;;;;;1.40;100.00;100649.19;6281312;20;3695121;-56
2023/01/01 04:51:11;;;;;;;;;101.00;87.00;;;;;1.31;100.00;100649.25;6283380;20;3661707;-54
2023/01/01 04:53:42;;;;;;;;;113.67;90.67;;;;;1.39;100.00;100644.78;6283126;20;3672285;-56
2023/01/01 04:56:22;;;;;;;;;106.67;90.00;;;;;1.49;100.00;100646.47;6284985;20;3676283;-56
2023/01/01 04:58:52;;;;;;;;;126.00;95.33;;;;;1.44;100.00;100642.97;6280710;20;3691931;-53
2023/01/01 05:01:30;;;;;;;;;121.33;94.00;;;;;1.31;100.00;100636.03;6284807;20;3690994;-55
2023/01/01 05:04:00;;;;;;;;;120.67;98.67;;;;;1.57;100.00;100633.16;6285814;20;3708579;-55
2023/01/01 05:06:30;;;;;;;;;127.33;101.00;;;;;1.49;100.00;100638.50;6282600;20;3700278;-55
2023/01/01 05:09:02;;;;;;;;;187.50;146.75;;;;;1.27;100.00;100644.91;6283686;20;4483612;-55
2023/01/01 05:11:32;;;;;;;;;123.33;98.33;;;;;1.26;100.00;100643.13;6313818;20;3684138;-54
2023/01/01 05:14:02;;;;;;;;;114.33;84.33;;;;;1.29;100.00;100648.38;6284364;20;3707533;-53
2023/01/01 05:16:36;;;;;;;;;113.33;97.33;;;;;1.44;100.00;100637.69;6284931;20;3672143;-56
2023/01/01 05:19:09;;;;;;;;;123.50;100.25;;;;;1.33;100.00;100647.47;6283260;20;3714856;-56
2023/01/01 05:21:40;;;;;;;;;134.25;99.50;;;;;1.32;100.00;100653.69;6280697;20;3719043;-56
2023/01/01 05:24:10;;;;;;;;;139.00;104.33;;;;;1.26;100.00;100648.41;6278205;20;3721078;-54
2023/01/01 05:26:44;;;;;;;;;140.25;111.50;;;;;1.34;100.00;100649.22;6283665;20;4485634;-54
2023/01/01 05:29:14;;;;;;;;;132.25;105.50;;;;;1.13;100.00;100644.13;6278082;20;3717073;-52
2023/01/01 05:31:45;;;;;;;;;89.00;62.00;;;;;1.11;100.00;100638.84;6278593;20;3661761;-55
2023/01/01 05:34:15;;;;;;;;;114.67;96.67;;;;;1.29;100.00;100651.03;6313600;20;3693152;-56
2023/01/01 05:36:45;;;;;;;;;108.00;86.67;;;;;1.15;100.00;100640.56;6278261;20;3683647;-53
2023/01/01 05:39:15;;;;;;;;;133.00;105.75;;;;;1.13;100.00;100637.06;6280918;20;3716992;-53
2023/01/01 05:41:45;;;;;;;;;121.67;105.33;;;;;1.34;100.00;100630.72;6313978;20;3703413;-54
2023/01/01 05:44:16;;;;;;;;;127.67;101.00;;;;;1.30;100.00;100636.94;6281456;20;3700308;-53
2023/01/01 05:46:45;;;;;;;;;117.00;96.67;;;;;1.32;100.00;100637.81;6282351;20;3675310;-54
2023/01/01 05:49:15;;;;;;;;;120.00;101.33;;;;;1.48;100.00;100649.13;6281579;20;3704546;-54
2023/01/01 05:51:45;;;;;;;;;116.67;103.00;;;;;1.24;100.00;100655.50;6281896;20;3703400;-56
2023/01/01 05:54:14;;;;;;;;;110.33;103.33;;;;;1.24;100.00;100655.50;6283071;20;3698238;-58
2023/01/01 05:56:43;;;;;;;;;185.00;148.50;;;;;1.14;100.00;100653.81;6284299;20;4476441;-53
2023/01/01 05:59:11;;;;;;;;;167.50;138.00;;;;;1.27;100.00;100663.41;6277055;20;1962766;-56
2023/01/01 06:01:41;;;;;;;;;130.75;107.50;;;;;1.27;100.00;100661.66;6282594;20;4481465;-56
2023/01/01 06:04:15;;;;;;;;;144.25;127.50;;;;;1.15;100.00;100676.72;6311669;20;3710753;-55
2023/01/01 06:06:45;;;;;;;;;175.00;145.50;;;;;1.20;100.00;100669.63;6278111;20;4482550;-57
2023/01/01 06:09:15;;;;;;;;;193.50;154.25;;;;;1.30;100.00;100668.69;6278556;20;4486733;-55
2023/01/01 06:11:46;;;;;;;;;145.50;119.50;;;;;1.27;100.00;100663.41;6277431;20;4494054;-54
2023/01/01 06:14:15;;;;;;;;;128.00;97.00;;;;;1.14;100.00;100667.91;6283238;20;3693114;-54
2023/01/01 06:16:46;;;;;;;;;128.25;105.00;;;;;1.14;100.00;100669.69;6279035;20;3725426;-56
2023/01/01 06:19:16;;;;;;;;;118.67;116.00;;;;;0.93;100.00;100666.31;6310053;20;3685822;-53
2023/01/01 06:21:45;;;;;;;;;102.33;86.33;;;;;1.23;100.00;100659.91;6278499;20;3671133;-55
2023/01/01 06:24:15;;;;;;;;;117.67;94.00;;;;;1.57;100.00;100674.63;6282563;20;3692984;-54
2023/01/01 06:26:44;;;;;;;;;110.00;89.33;;;;;1.41;100.00;100687.97;6278660;20;3688806;-57
2023/01/01 06:29:14;;;;;;;;;105.67;88.67;;;;;1.44;100.00;100685.31;6278314;20;3692954;-57
2023/01/01 06:31:44;;;;;;;;;105.67;86.00;;;;;1.55;100.00;100693.16;6277723;20;3687830;-54
2023/01/01 06:34:13;;;;;;;;;106.33;83.33;;;;;1.33;100.00;100703.03;6280882;20;3693997;-55
2023/01/01 06:36:43;;;;;;;;;106.33;90.00;;;;;1.26;100.00;100707.53;6276651;20;3685747;-55
2023/01/01 06:39:13;;;;;;;;;120.33;106.67;;;;;1.35;100.00;100714.50;6279174;20;3695041;-56
2023/01/01 06:41:41;;;;;;;;;167.50;141.50;;;;;1.18;100.00;100704.03;6273425;20;1964954;-54
2023/01/01 06:44:11;;;;;;;;;137.00;114.25;;;;;1.45;100.00;100713.53;6281727;20;4500307;-54
2023/01/01 06:46:41;;;;;;;;;107.00;85.67;;;;;1.42;100.00;100708.28;6283189;20;3697230;-55
2023/01/01 06:49:12;;;;;;;;;100.33;73.67;;;;;1.19;100.00;100715.50;6281363;20;3684747;-54
2023/01/01 06:51:43;;;;;;;;;94.33;68.67;;;;;1.45;100.00;100710.91;6277791;20;3655586;-56
2023/01/01 06:54:13;;;;;;;;;103.67;88.00;;;;;1.32;100.00;100727.75;6313568;20;3686711;-56
2023/01/01 06:56:43;;;;;;;;;140.00;115.25;;;;;1.30;100.00;100729.53;6275759;20;3712891;-56
2023/01/01 06:59:15;;;;;;;;;141.00;123.00;;;;;1.43;100.00;100736.47;6273229;20;4492967;-54
2023/01/01 07:01:45;;;;;;;;;190.00;151.00;;;;;1.28;100.00;100739.22;6276382;20;3716084;-56
2023/01/01 07:04:16;;;;;;;;;126.25;108.25;;;;;1.24;100.00;100737.50;6278463;20;3715559;-56
2023/01/01 07:06:46;;;;;;;;;103.67;91.33;;;;;1.44;100.00;100747.94;6314882;20;3679456;-56
2023/01/01 07:09:15;;;;;;;;;99.33;79.00;;;;;1.28;100.00;100752.47;6278257;20;3662733;-55
2023/01/01 07:11:45;;;;;;;;;94.33;76.67;;;;;1.41;100.00;100738.25;6276104;20;3656520;-55
2023/01/01 07:14:14;;;;;;;;;97.00;76.67;;;;;1.36;100.00;100753.28;6313490;20;3677326;-54
2023/01/01 07:16:44;;;;;;;;;99.33;80.67;;;;;1.52;100.00;100762.88;6275801;20;3677356;-54
2023/01/01 07:19:14;;;;;;;;;94.00;70.67;;;;;1.63;100.00;100751.31;6276123;20;3662874;-56
2023/01/01 07:21:50;;;;;;;;;93.50;73.50;;;;;1.67;100.00;100759.22;6308841;20;3535872;-56
2023/01/01 07:24:22;;;;;;;;;99.67;83.67;;;;;1.62;100.00;100758.41;6307681;20;3676340;-55
2023/01/01 07:26:51;;;;;;;;;105.67;86.33;;;;;1.72;100.00;100751.25;6275099;20;3699223;-52
2023/01/01 07:29:21;;;;;;;;;101.33;79.67;;;;;1.73;100.00;100747.72;6278744;20;3684118;-53
2023/01/01 07:31:51;;;;;;;;;109.67;95.00;;;;;2.01;100.00;100756.31;6275772;20;3683572;-52
2023/01/01 07:34:22;;;;;;;;;120.33;94.33;;;;;2.03;100.00;100745.66;6280391;20;3691030;-54
2023/01/01 07:36:54;;;;;;;;;174.25;144.25;;;;;2.14;100.00;100746.47;6277993;20;3713148;-52
2023/01/01 07:39:24;;;;;;;;;162.25;129.00;;;;;2.26;100.00;100743.66;6278717;20;4495121;-52
2023/01/01 07:41:54;;;;;;;;;105.67;90.00;;;;;2.20;100.00;100752.56;6277622;20;3687882;-56
2023/01/01 07:44:23;;;;;;;;;107.67;92.00;;;;;2.01;100.00;100752.78;6278334;20;3681658;-55
2023/01/01 07:47:05;;;;;;;;;113.33;97.00;;;;;2.17;100.00;100754.38;6278858;20;3697137;-57
2023/01/01 07:49:34;;;;;;;;;102.00;81.00;;;;;2.41;100.00;100754.13;6277870;20;3687849;-53
2023/01/01 07:52:04;;;;;;;;;98.67;87.00;;;;;2.18;100.00;100759.66;6280013;20;3655476;-55
2023/01/01 07:54:34;;;;;;;;;97.00;82.67;;;;;2.36;100.00;100761.22;6308888;20;3665883;-54
2023/01/01 07:57:03;;;;;;;;;99.00;85.00;;;;;2.44;100.00;100755.84;6283458;20;3686698;-53
2023/01/01 07:59:33;;;;;;;;;97.00;83.33;;;;;2.42;100.00;100761.19;6284065;20;3667952;-52
2023/01/01 08:02:03;;;;;;;;;98.00;82.33;;;;;2.57;100.00;100749.50;6285820;20;3681483;-55
2023/01/01 08:04:33;;;;;;;;;102.33;86.00;;;;;2.16;100.00;100750.00;6282667;20;3696110;-55
2023/01/01 08:07:02;;;;;;;;;86.67;67.67;;;;;2.11;100.00;100751.81;6284643;20;3638797;-56
2023/01/01 08:09:32;;;;;;;;;104.00;89.00;;;;;2.02;100.00;100754.53;6315906;20;3695056;-55
2023/01/01 08:12:02;;;;;;;;;104.67;84.33;;;;;2.19;100.00;100749.94;6284385;20;3688816;-53
2023/01/01 08:14:30;;;;;;;;;124.50;104.50;;;;;2.30;100.00;100761.31;6279103;20;1954633;-50
2023/01/01 08:16:59;;;;;;;;;112.67;95.33;;;;;2.32;100.00;100756.88;6282983;20;3661798;-53
2023/01/01 08:19:29;;;;;;;;;108.67;89.33;;;;;2.34;100.00;100765.69;6282093;20;3690947;-55
2023/01/01 08:21:58;;;;;;;;;109.00;90.00;;;;;2.37;100.00;100765.66;6286214;20;3691940;-55
2023/01/01 08:24:27;;;;;;;;;100.00;85.00;;;;;2.61;100.00;100777.75;6280934;20;2803443;-55
2023/01/01 08:26:57;;;;;;;;;111.67;87.33;;;;;2.81;100.00;100777.50;6280409;20;3684676;-54
2023/01/01 08:29:27;;;;;;;;;96.67;75.67;;;;;2.65;100.00;100783.91;6283920;20;3685659;-53
2023/01/01 08:31:57;;;;;;;;;98.67;77.33;;;;;2.69;100.00;100788.28;6285393;20;3674189;-55
2023/01/01 08:34:27;;;;;;;;;130.50;105.75;;;;;3.15;100.00;100787.69;6282746;20;4493118;-56
2023/01/01 08:36:55;;;;;;;;;158.50;124.00;;;;;3.11;100.00;100791.31;6287978;20;1945227;-56
2023/01/01 08:39:26;;;;;;;;;127.00;106.50;;;;;2.75;100.00;100785.53;6282859;20;4489907;-54
2023/01/01 08:41:56;;;;;;;;;97.33;84.67;;;;;3.10;100.00;100789.53;6316320;20;3674286;-55
2023/01/01 08:44:25;;;;;;;;;89.33;65.33;;;;;3.07;100.00;100793.09;6281769;20;3655601;-54
2023/01/01 08:46:55;;;;;;;;;84.00;63.67;;;;;3.27;100.00;100787.53;6282189;20;3641925;-52
2023/01/01 08:49:24;;;;;;;;;86.33;67.67;;;;;3.32;100.00;100798.09;6312786;20;3660669;-53
2023/01/01 08:51:54;;;;;;;;;93.00;77.00;;;;;3.45;100.00;100797.03;6314510;20;3675331;-54
2023/01/01 08:54:24;;;;;;;;;88.33;67.67;;;;;3.60;100.00;100803.00;6282341;20;3659632;-52
2023/01/01 08:56:53;;;;;;;;;93.33;73.67;;;;;3.70;100.00;100802.81;6281950;20;3669175;-56
2023/01/01 08:59:23;;;;;;;;;102.67;86.67;;;;;3.47;100.00;100805.81;6280947;20;3684631;-52
2023/01/01 09:01:51;;;;;;;;;115.00;93.00;;;;;3.71;100.00;100804.59;6277635;20;1944110;-56
2023/01/01 09:04:21;;;;;;;;;97.33;76.67;;;;;3.96;100.00;100806.84;6282864;20;3665946;-54
2023/01/01 09:06:51;;;;;;;;;90.67;69.33;;;;;3.83;100.00;100787.56;6283960;20;3666936;-55
2023/01/01 09:09:21;;;;;;;;;89.00;73.00;;;;;3.55;100.00;100807.50;6309381;20;3659737;-56
2023/01/01 09:12:04;;;;;;;;;111.67;92.33;;;;;3.66;100.00;100801.13;6314739;20;3686833;-54
2023/01/01 09:14:34;;;;;;;;;93.00;72.67;;;;;3.76;100.00;100806.28;6282104;20;3669000;-56
2023/01/01 09:17:04;;;;;;;;;96.67;75.67;;;;;3.71;100.00;100799.28;6278462;20;3677423;-56
2023/01/01 09:19:34;;;;;;;;;93.67;73.33;;;;;3.78;100.00;100799.19;6280573;20;3666030;-53
2023/01/01 09:22:03;;;;;;;;;85.33;65.00;;;;;3.98;100.00;100799.75;6280473;20;2877448;-56
2023/01/01 09:24:32;;;;;;;;;423.00;356.75;;;;;4.39;100.00;100784.81;6293512;20;4502315;-56
2023/01/01 09:27:01;;;;;;;;;92.33;76.67;;;;;4.28;100.00;100784.16;6275207;20;3665890;-54
2023/01/01 09:29:31;;;;;;;;;91.33;71.33;;;;;4.22;100.00;100773.66;6281670;20;3661850;-54
2023/01/01 09:32:01;;;;;;;;;95.67;74.00;;;;;4.03;100.00;100783.69;6282178;20;3675934;-54
2023/01/01 09:34:31;;;;;;;;;133.00;102.00;;;;;4.33;100.00;100776.97;6282387;20;4466945;-57
2023/01/01 09:37:01;;;;;;;;;162.50;137.50;;;;;4.68;100.00;100772.75;6313280;20;4479453;-54
2023/01/01 09:39:30;;;;;;;;;89.00;63.67;;;;;4.75;100.00;100774.41;6277620;20;3651338;-55
2023/01/01 09:42:48;;;;;;;;;86.00;62.67;;;;;5.03;100.00;100764.94;6283580;20;3643135;-55
2023/01/01 09:45:54;;;;;;;;;84.67;65.00;;;;;5.00;100.00;100772.09;6305668;20;3640970;-55
2023/01/01 09:48:28;;;;;;;;;84.00;61.00;;;;;4.85;100.00;100783.94;6314209;20;3655470;-52
2023/01/01 09:51:02;;;;;;;;;116.00;98.67;;;;;5.00;100.00;100778.31;6277710;20;3705540;-58
2023/01/01 09:53:56;;;;;;;;;79.00;58.00;;;;;4.92;100.00;100777.56;6277633;20;3640927;-56
2023/01/01 09:56:28;;;;;;;;;82.33;63.00;;;;;4.59;100.00;100785.34;6309755;20;3628387;-55
2023/01/01 09:58:58;;;;;;;;;79.00;59.67;;;;;4.64;100.00;100787.91;6305254;20;3636857;-53
2023/01/01 10:02:10;;;;;;;;;76.33;59.67;;;;;4.89;100.00;100782.09;6300885;20;3637891;-56
2023/01/01 10:05:08;;;;;;;;;89.33;69.00;;;;;5.08;100.00;100788.78;6309014;20;3663968;-56
2023/01/01 10:08:00;;;;;;;;;82.67;61.00;;;;;5.21;100.00;100794.72;6275485;20;3661738;-53
2023/01/01 10:10:48;;;;;;;;;78.00;58.33;;;;;5.34;100.00;100790.88;6272083;20;3641019;-55
2023/01/01 10:13:50;;;;;;;;;80.33;62.00;;;;;5.28;100.00;100780.38;6307297;20;3639990;-54
2023/01/01 10:16:29;;;;;;;;;79.67;59.67;;;;;5.30;100.00;100781.22;6302942;20;3645079;-51
2023/01/01 10:19:22;;;;;;;;;74.33;53.00;;;;;5.02;100.00;100779.13;6307214;20;3645094;-54
2023/01/01 10:21:58;;;;;;;;;79.33;59.00;;;;;5.06;100.00;100778.16;6312046;20;3633640;-52
2023/01/01 10:24:36;;;;;;;;;85.00;64.00;;;;;5.07;100.00;100776.38;6311816;20;3644034;-55
2023/01/01 10:27:08;;;;;;;;;80.67;61.67;;;;;5.17;100.00;100777.06;6307539;20;3630576;-50
2023/01/01 10:29:47;;;;;;;;;83.33;63.00;;;;;5.44;100.00;100776.44;6302702;20;3647116;-56
2023/01/01 10:32:28;;;;;;;;;77.33;56.00;;;;;5.39;100.00;100773.00;6306321;20;2877481;-54
2023/01/01 10:34:59;;;;;;;;;83.00;64.33;;;;;5.43;100.00;100764.03;6305797;20;3616969;-54
2023/01/01 10:37:35;;;;;;;;;87.75;70.00;;;;;5.54;100.00;100773.56;6310863;20;4417972;-53
2023/01/01 10:40:22;;;;;;;;;85.00;64.00;;;;;5.71;100.00;100769.59;6306242;20;3646300;-51
2023/01/01 10:42:56;;;;;;;;;75.67;58.33;;;;;5.92;100.00;100760.22;6307179;20;3635006;-53
2023/01/01 10:45:46;;;;;;;;;83.00;60.00;;;;;5.59;100.00;100766.34;6307621;20;3650243;-57
2023/01/01 10:48:20;;;;;;;;;17.00;0.00;;;;;5.36;100.00;100764.22;6275197;20;2808637;-56
2023/01/01 10:51:05;;;;;;;;;103.33;91.67;;;;;5.19;100.00;100759.28;6273035;20;3685786;-57
2023/01/01 10:53:51;;;;;;;;;113.67;97.33;;;;;5.53;100.00;100771.81;6278164;20;3692944;-56
2023/01/01 10:56:27;;;;;;;;;92.67;77.33;;;;;5.38;100.00;100759.75;6276050;20;3676458;-57
2023/01/01 10:58:57;;;;;;;;;89.00;68.67;;;;;5.55;100.00;100760.19;6271817;20;3655572;-59
2023/01/01 11:01:32;;;;;;;;;79.00;59.67;;;;;5.94;100.00;100761.06;6304402;20;3650226;-58
2023/01/01 11:04:20;;;;;;;;;79.67;61.00;;;;;6.38;100.00;100751.03;6266850;20;3624313;-57
2023/01/01 11:06:49;;;;;;;;;81.33;63.67;;;;;6.32;100.00;100756.53;6306913;20;3622267;-57
2023/01/01 11:09:28;;;;;;;;;67.00;54.33;;;;;6.09;100.00;100759.78;6303800;20;2857563;-57
2023/01/01 11:12:06;;;;;;;;;91.67;75.33;;;;;6.11;100.00;100757.09;6305776;20;3666904;-57
2023/01/01 11:14:58;;;;;;;;;88.33;66.00;;;;;6.46;100.00;100749.94;6268749;20;3677334;-57
2023/01/01 11:17:35;;;;;;;;;81.67;61.33;;;;;6.08;100.00;100741.16;6278578;20;3638814;-57
2023/01/01 11:20:06;;;;;;;;;77.00;62.33;;;;;6.14;100.00;100733.88;6272578;20;3623177;-56
2023/01/01 11:22:49;;;;;;;;;81.00;60.67;;;;;6.37;100.00;100738.63;6307192;20;3657553;-58
2023/01/01 11:25:31;;;;;;;;;83.67;63.33;;;;;6.74;100.00;100728.66;6274226;20;3657634;-56
2023/01/01 11:28:16;;;;;;;;;76.33;55.00;;;;;6.73;100.00;100718.94;6271298;20;3654444;-57
2023/01/01 11:31:05;;;;;;;;;74.00;57.33;;;;;6.80;100.00;100705.34;6301316;20;3638296;-57